sensor_id;sensor_type;location;lat;lon;timestamp;P1;durP1;ratioP1;P2;durP2;ratioP2
15573;SDS011;7888;46.748;8.102;2024-01-11T09:00:52;9.23;;;5.60;;
15573;SDS011;7888;46.748;8.102;2024-01-11T09:03:18;10.17;;;5.87;;
15573;SDS011;7888;46.748;8.102;2024-01-11T09:05:44;11.80;;;6.53;;
15573;SDS011;7888;46.748;8.102;2024-01-11T09:08:09;8.37;;;5.73;;
15573;SDS011;7888;46.748;8.102;2024-01-11T09:10:35;8.97;;;5.60;;
15573;SDS011;7888;46.748;8.102;2024-01-11T09:13:01;9.67;;;5.73;;
15573;SDS011;7888;46.748;8.102;2024-01-11T09:15:27;8.23;;;5.50;;
15573;SDS011;7888;46.748;8.102;2024-01-11T09:17:52;9.53;;;5.97;;
15573;SDS011;7888;46.748;8.102;2024-01-11T09:20:18;9.83;;;6.17;;
15573;SDS011;7888;46.748;8.102;2024-01-11T09:22:44;8.60;;;5.73;;
15573;SDS011;7888;46.748;8.102;2024-01-11T09:25:10;9.67;;;6.13;;
15573;SDS011;7888;46.748;8.102;2024-01-11T09:27:36;8.47;;;6.17;;
15573;SDS011;7888;46.748;8.102;2024-01-11T09:30:02;7.47;;;5.83;;
15573;SDS011;7888;46.748;8.102;2024-01-11T09:32:29;8.17;;;5.83;;
15573;SDS011;7888;46.748;8.102;2024-01-11T09:34:56;8.47;;;5.60;;
15573;SDS011;7888;46.748;8.102;2024-01-11T09:37:21;6.53;;;4.70;;
15573;SDS011;7888;46.748;8.102;2024-01-11T09:39:47;6.33;;;4.40;;
15573;SDS011;7888;46.748;8.102;2024-01-11T09:42:13;6.90;;;4.40;;
15573;SDS011;7888;46.748;8.102;2024-01-11T09:44:38;5.73;;;4.07;;
15573;SDS011;7888;46.748;8.102;2024-01-11T09:47:07;6.10;;;4.07;;
15573;SDS011;7888;46.748;8.102;2024-01-11T09:49:35;5.57;;;4.23;;
15573;SDS011;7888;46.748;8.102;2024-01-11T09:52:04;5.33;;;4.17;;
15573;SDS011;7888;46.748;8.102;2024-01-11T09:54:33;7.57;;;4.53;;
15573;SDS011;7888;46.748;8.102;2024-01-11T09:57:00;5.40;;;4.07;;
15573;SDS011;7888;46.748;8.102;2024-01-11T09:59:30;6.93;;;4.53;;
15573;SDS011;7888;46.748;8.102;2024-01-11T10:01:57;7.40;;;4.63;;
15573;SDS011;7888;46.748;8.102;2024-01-11T10:04:25;6.47;;;4.60;;
15573;SDS011;7888;46.748;8.102;2024-01-11T10:06:51;7.27;;;5.00;;
15573;SDS011;7888;46.748;8.102;2024-01-11T10:09:19;6.00;;;4.53;;
15573;SDS011;7888;46.748;8.102;2024-01-11T10:11:45;6.33;;;4.63;;
15573;SDS011;7888;46.748;8.102;2024-01-11T10:14:13;7.40;;;5.40;;
15573;SDS011;7888;46.748;8.102;2024-01-11T10:16:41;7.57;;;5.20;;
15573;SDS011;7888;46.748;8.102;2024-01-11T10:19:08;7.67;;;5.23;;
15573;SDS011;7888;46.748;8.102;2024-01-11T10:21:37;8.40;;;5.60;;
15573;SDS011;7888;46.748;8.102;2024-01-11T10:24:06;9.07;;;5.40;;
15573;SDS011;7888;46.748;8.102;2024-01-11T10:26:32;7.13;;;5.20;;
15573;SDS011;7888;46.748;8.102;2024-01-11T10:29:01;7.73;;;5.70;;
15573;SDS011;7888;46.748;8.102;2024-01-11T10:31:28;7.70;;;5.00;;
15573;SDS011;7888;46.748;8.102;2024-01-11T10:33:54;7.87;;;5.47;;
15573;SDS011;7888;46.748;8.102;2024-01-11T10:36:20;9.13;;;5.80;;
15573;SDS011;7888;46.748;8.102;2024-01-11T10:38:46;8.63;;;5.27;;
15573;SDS011;7888;46.748;8.102;2024-01-11T10:41:13;6.77;;;4.90;;
15573;SDS011;7888;46.748;8.102;2024-01-11T10:43:44;6.97;;;4.90;;
15573;SDS011;7888;46.748;8.102;2024-01-11T10:46:13;8.30;;;5.07;;
15573;SDS011;7888;46.748;8.102;2024-01-11T10:48:44;8.87;;;5.30;;
15573;SDS011;7888;46.748;8.102;2024-01-11T10:51:14;8.87;;;5.40;;
15573;SDS011;7888;46.748;8.102;2024-01-11T10:53:47;9.57;;;6.03;;
15573;SDS011;7888;46.748;8.102;2024-01-11T10:56:15;11.57;;;8.27;;
15573;SDS011;7888;46.748;8.102;2024-01-11T10:58:43;11.40;;;7.40;;
15573;SDS011;7888;46.748;8.102;2024-01-11T11:01:12;10.20;;;6.73;;
15573;SDS011;7888;46.748;8.102;2024-01-11T11:03:39;9.07;;;6.70;;
15573;SDS011;7888;46.748;8.102;2024-01-11T11:06:08;9.40;;;6.33;;
15573;SDS011;7888;46.748;8.102;2024-01-11T11:08:36;8.57;;;5.60;;
15573;SDS011;7888;46.748;8.102;2024-01-11T11:11:03;8.53;;;5.60;;
15573;SDS011;7888;46.748;8.102;2024-01-11T11:13:31;7.83;;;5.50;;
15573;SDS011;7888;46.748;8.102;2024-01-11T11:16:00;9.33;;;6.43;;
15573;SDS011;7888;46.748;8.102;2024-01-11T11:18:28;8.40;;;4.97;;
15573;SDS011;7888;46.748;8.102;2024-01-11T11:20:54;7.33;;;5.37;;
15573;SDS011;7888;46.748;8.102;2024-01-11T11:23:20;8.63;;;5.73;;
15573;SDS011;7888;46.748;8.102;2024-01-11T11:25:46;8.27;;;5.40;;
15573;SDS011;7888;46.748;8.102;2024-01-11T11:28:14;7.97;;;5.57;;
15573;SDS011;7888;46.748;8.102;2024-01-11T11:30:43;7.70;;;4.97;;
15573;SDS011;7888;46.748;8.102;2024-01-11T11:33:25;8.50;;;5.17;;
15573;SDS011;7888;46.748;8.102;2024-01-11T11:35:54;8.07;;;5.53;;
15573;SDS011;7888;46.748;8.102;2024-01-11T11:38:24;8.53;;;5.30;;
15573;SDS011;7888;46.748;8.102;2024-01-11T11:40:54;7.17;;;5.20;;
15573;SDS011;7888;46.748;8.102;2024-01-11T11:43:22;9.43;;;6.30;;
15573;SDS011;7888;46.748;8.102;2024-01-11T11:45:50;7.73;;;5.33;;
15573;SDS011;7888;46.748;8.102;2024-01-11T11:51:06;7.43;;;5.00;;
15573;SDS011;7888;46.748;8.102;2024-01-11T11:53:35;8.60;;;5.17;;
15573;SDS011;7888;46.748;8.102;2024-01-11T11:56:03;7.80;;;5.33;;
15573;SDS011;7888;46.748;8.102;2024-01-11T11:58:30;7.50;;;5.00;;
15573;SDS011;7888;46.748;8.102;2024-01-11T12:00:58;7.93;;;5.50;;
15573;SDS011;7888;46.748;8.102;2024-01-11T12:03:28;9.10;;;5.27;;
15573;SDS011;7888;46.748;8.102;2024-01-11T12:06:02;8.07;;;5.50;;
15573;SDS011;7888;46.748;8.102;2024-01-11T12:08:30;7.80;;;5.07;;
15573;SDS011;7888;46.748;8.102;2024-01-11T12:10:57;8.77;;;5.87;;
15573;SDS011;7888;46.748;8.102;2024-01-11T12:13:24;7.93;;;5.53;;
15573;SDS011;7888;46.748;8.102;2024-01-11T12:15:50;8.77;;;6.30;;
15573;SDS011;7888;46.748;8.102;2024-01-11T12:18:17;8.97;;;5.53;;
15573;SDS011;7888;46.748;8.102;2024-01-11T12:20:43;6.50;;;5.00;;
15573;SDS011;7888;46.748;8.102;2024-01-11T12:23:09;7.63;;;5.17;;
15573;SDS011;7888;46.748;8.102;2024-01-11T12:25:38;7.83;;;5.10;;
15573;SDS011;7888;46.748;8.102;2024-01-11T12:28:06;8.90;;;6.00;;
15573;SDS011;7888;46.748;8.102;2024-01-11T12:30:32;6.93;;;4.90;;
15573;SDS011;7888;46.748;8.102;2024-01-11T12:32:58;8.20;;;5.17;;
15573;SDS011;7888;46.748;8.102;2024-01-11T12:35:28;6.40;;;4.67;;
15573;SDS011;7888;46.748;8.102;2024-01-11T12:37:59;6.30;;;4.30;;
15573;SDS011;7888;46.748;8.102;2024-01-11T12:40:29;6.63;;;4.53;;
15573;SDS011;7888;46.748;8.102;2024-01-11T12:42:59;7.43;;;4.97;;
15573;SDS011;7888;46.748;8.102;2024-01-11T12:45:25;7.47;;;4.67;;
15573;SDS011;7888;46.748;8.102;2024-01-11T12:47:52;7.07;;;4.83;;
15573;SDS011;7888;46.748;8.102;2024-01-11T12:50:19;6.97;;;5.03;;
15573;SDS011;7888;46.748;8.102;2024-01-11T12:52:45;6.87;;;4.50;;
15573;SDS011;7888;46.748;8.102;2024-01-11T12:55:18;7.03;;;4.67;;
15573;SDS011;7888;46.748;8.102;2024-01-11T12:57:44;6.90;;;4.87;;
15573;SDS011;7888;46.748;8.102;2024-01-11T13:00:11;7.33;;;4.87;;
15573;SDS011;7888;46.748;8.102;2024-01-11T13:02:41;7.87;;;4.87;;
15573;SDS011;7888;46.748;8.102;2024-01-11T13:05:11;8.87;;;5.27;;
15573;SDS011;7888;46.748;8.102;2024-01-11T13:07:37;8.27;;;5.33;;
15573;SDS011;7888;46.748;8.102;2024-01-11T13:10:03;7.20;;;4.60;;
15573;SDS011;7888;46.748;8.102;2024-01-11T13:12:30;7.90;;;4.67;;
15573;SDS011;7888;46.748;8.102;2024-01-11T13:14:56;7.40;;;5.33;;
15573;SDS011;7888;46.748;8.102;2024-01-11T13:17:22;6.90;;;4.90;;
15573;SDS011;7888;46.748;8.102;2024-01-11T13:19:48;6.07;;;4.30;;
15573;SDS011;7888;46.748;8.102;2024-01-11T13:22:14;7.47;;;4.93;;
15573;SDS011;7888;46.748;8.102;2024-01-11T13:24:39;6.27;;;4.10;;
15573;SDS011;7888;46.748;8.102;2024-01-11T13:27:05;7.37;;;4.67;;
15573;SDS011;7888;46.748;8.102;2024-01-11T13:29:31;7.77;;;4.77;;
15573;SDS011;7888;46.748;8.102;2024-01-11T13:31:56;7.90;;;4.87;;
15573;SDS011;7888;46.748;8.102;2024-01-11T13:34:22;6.67;;;4.53;;
15573;SDS011;7888;46.748;8.102;2024-01-11T13:36:48;6.27;;;4.50;;
15573;SDS011;7888;46.748;8.102;2024-01-11T13:39:14;7.83;;;5.13;;
15573;SDS011;7888;46.748;8.102;2024-01-11T13:41:43;6.23;;;4.53;;
15573;SDS011;7888;46.748;8.102;2024-01-11T13:44:09;7.30;;;4.23;;
15573;SDS011;7888;46.748;8.102;2024-01-11T13:46:36;7.87;;;5.10;;
15573;SDS011;7888;46.748;8.102;2024-01-11T13:49:02;9.17;;;5.13;;
15573;SDS011;7888;46.748;8.102;2024-01-11T13:51:29;6.40;;;4.73;;
15573;SDS011;7888;46.748;8.102;2024-01-11T13:53:57;7.13;;;4.97;;
15573;SDS011;7888;46.748;8.102;2024-01-11T13:56:25;5.93;;;4.37;;
15573;SDS011;7888;46.748;8.102;2024-01-11T13:58:51;6.57;;;4.50;;
15573;SDS011;7888;46.748;8.102;2024-01-11T14:01:17;6.77;;;4.47;;
15573;SDS011;7888;46.748;8.102;2024-01-11T14:03:43;5.97;;;4.73;;
15573;SDS011;7888;46.748;8.102;2024-01-11T14:06:09;7.70;;;4.67;;
15573;SDS011;7888;46.748;8.102;2024-01-11T14:08:34;5.70;;;4.40;;
15573;SDS011;7888;46.748;8.102;2024-01-11T14:11:00;5.53;;;4.30;;
15573;SDS011;7888;46.748;8.102;2024-01-11T14:13:26;6.20;;;4.30;;
15573;SDS011;7888;46.748;8.102;2024-01-11T14:15:52;7.03;;;4.57;;
15573;SDS011;7888;46.748;8.102;2024-01-11T14:18:18;7.00;;;4.70;;
15573;SDS011;7888;46.748;8.102;2024-01-11T14:20:46;7.60;;;3.80;;
15573;SDS011;7888;46.748;8.102;2024-01-11T14:23:12;6.80;;;4.23;;
15573;SDS011;7888;46.748;8.102;2024-01-11T14:25:38;5.83;;;4.60;;
15573;SDS011;7888;46.748;8.102;2024-01-11T14:28:03;6.73;;;4.60;;
15573;SDS011;7888;46.748;8.102;2024-01-11T14:30:29;7.77;;;4.67;;
15573;SDS011;7888;46.748;8.102;2024-01-11T14:32:55;7.83;;;4.50;;
15573;SDS011;7888;46.748;8.102;2024-01-11T14:35:21;6.47;;;4.37;;
15573;SDS011;7888;46.748;8.102;2024-01-11T14:37:47;6.37;;;4.70;;
15573;SDS011;7888;46.748;8.102;2024-01-11T14:40:13;6.17;;;4.20;;
15573;SDS011;7888;46.748;8.102;2024-01-11T14:42:39;7.37;;;4.53;;
15573;SDS011;7888;46.748;8.102;2024-01-11T14:45:06;5.57;;;4.13;;
15573;SDS011;7888;46.748;8.102;2024-01-11T14:47:33;6.90;;;4.93;;
15573;SDS011;7888;46.748;8.102;2024-01-11T14:49:59;8.53;;;5.00;;
15573;SDS011;7888;46.748;8.102;2024-01-11T14:52:25;7.47;;;4.93;;
15573;SDS011;7888;46.748;8.102;2024-01-11T14:54:51;6.63;;;4.60;;
15573;SDS011;7888;46.748;8.102;2024-01-11T14:57:17;8.40;;;5.47;;
15573;SDS011;7888;46.748;8.102;2024-01-11T14:59:43;8.80;;;5.47;;
15573;SDS011;7888;46.748;8.102;2024-01-11T15:02:10;8.13;;;4.70;;
15573;SDS011;7888;46.748;8.102;2024-01-11T15:04:36;8.60;;;4.77;;
15573;SDS011;7888;46.748;8.102;2024-01-11T15:07:02;7.70;;;5.10;;
15573;SDS011;7888;46.748;8.102;2024-01-11T15:09:28;8.73;;;4.80;;
15573;SDS011;7888;46.748;8.102;2024-01-11T15:11:54;7.43;;;4.47;;
15573;SDS011;7888;46.748;8.102;2024-01-11T15:14:20;7.87;;;4.93;;
15573;SDS011;7888;46.748;8.102;2024-01-11T15:16:45;6.83;;;4.90;;
15573;SDS011;7888;46.748;8.102;2024-01-11T15:19:15;5.87;;;4.40;;
15573;SDS011;7888;46.748;8.102;2024-01-11T15:21:40;7.37;;;5.50;;
15573;SDS011;7888;46.748;8.102;2024-01-11T15:24:06;6.67;;;4.67;;
15573;SDS011;7888;46.748;8.102;2024-01-11T15:26:33;7.50;;;5.07;;
15573;SDS011;7888;46.748;8.102;2024-01-11T15:28:59;8.73;;;5.60;;
15573;SDS011;7888;46.748;8.102;2024-01-11T15:31:24;6.70;;;4.67;;
15573;SDS011;7888;46.748;8.102;2024-01-11T15:33:51;7.43;;;5.20;;
15573;SDS011;7888;46.748;8.102;2024-01-11T15:36:17;7.13;;;4.63;;
15573;SDS011;7888;46.748;8.102;2024-01-11T15:38:43;7.57;;;4.90;;
15573;SDS011;7888;46.748;8.102;2024-01-11T15:41:09;8.10;;;4.90;;
15573;SDS011;7888;46.748;8.102;2024-01-11T15:43:36;6.67;;;4.60;;
15573;SDS011;7888;46.748;8.102;2024-01-11T15:46:02;6.97;;;4.70;;
15573;SDS011;7888;46.748;8.102;2024-01-11T15:48:28;7.63;;;5.00;;
15573;SDS011;7888;46.748;8.102;2024-01-11T15:50:55;6.90;;;4.63;;
15573;SDS011;7888;46.748;8.102;2024-01-11T15:53:22;7.20;;;4.37;;
15573;SDS011;7888;46.748;8.102;2024-01-11T15:55:48;6.90;;;4.30;;
15573;SDS011;7888;46.748;8.102;2024-01-11T15:58:14;7.50;;;4.47;;
15573;SDS011;7888;46.748;8.102;2024-01-11T16:00:41;7.03;;;4.50;;
15573;SDS011;7888;46.748;8.102;2024-01-11T16:03:08;7.57;;;4.77;;
15573;SDS011;7888;46.748;8.102;2024-01-11T16:05:34;6.73;;;4.40;;
15573;SDS011;7888;46.748;8.102;2024-01-11T16:08:00;8.03;;;5.03;;
15573;SDS011;7888;46.748;8.102;2024-01-11T16:10:26;7.03;;;4.70;;
15573;SDS011;7888;46.748;8.102;2024-01-11T16:12:52;6.90;;;5.10;;
15573;SDS011;7888;46.748;8.102;2024-01-11T16:15:17;7.93;;;4.97;;
15573;SDS011;7888;46.748;8.102;2024-01-11T16:17:45;6.10;;;4.63;;
15573;SDS011;7888;46.748;8.102;2024-01-11T16:20:10;8.40;;;5.73;;
15573;SDS011;7888;46.748;8.102;2024-01-11T16:22:36;7.70;;;4.93;;
15573;SDS011;7888;46.748;8.102;2024-01-11T16:25:02;6.80;;;4.80;;
15573;SDS011;7888;46.748;8.102;2024-01-11T16:27:28;6.83;;;4.43;;
15573;SDS011;7888;46.748;8.102;2024-01-11T16:29:54;5.97;;;4.40;;
15573;SDS011;7888;46.748;8.102;2024-01-11T16:32:20;7.47;;;4.87;;
15573;SDS011;7888;46.748;8.102;2024-01-11T16:34:47;6.90;;;4.73;;
15573;SDS011;7888;46.748;8.102;2024-01-11T16:37:13;6.70;;;4.63;;
15573;SDS011;7888;46.748;8.102;2024-01-11T16:39:41;8.57;;;5.07;;
15573;SDS011;7888;46.748;8.102;2024-01-11T16:42:08;7.40;;;4.63;;
15573;SDS011;7888;46.748;8.102;2024-01-11T16:44:35;7.60;;;5.03;;
15573;SDS011;7888;46.748;8.102;2024-01-11T16:47:01;8.67;;;5.30;;
15573;SDS011;7888;46.748;8.102;2024-01-11T16:49:28;7.20;;;5.20;;
15573;SDS011;7888;46.748;8.102;2024-01-11T16:51:53;8.43;;;6.37;;
15573;SDS011;7888;46.748;8.102;2024-01-11T16:54:19;7.67;;;5.73;;
15573;SDS011;7888;46.748;8.102;2024-01-11T16:56:45;9.20;;;5.87;;
15573;SDS011;7888;46.748;8.102;2024-01-11T16:59:12;7.40;;;5.40;;
15573;SDS011;7888;46.748;8.102;2024-01-11T17:01:40;8.13;;;5.37;;
15573;SDS011;7888;46.748;8.102;2024-01-11T17:04:06;6.57;;;4.80;;
15573;SDS011;7888;46.748;8.102;2024-01-11T17:06:35;7.27;;;4.77;;
15573;SDS011;7888;46.748;8.102;2024-01-11T17:09:01;7.27;;;4.67;;
15573;SDS011;7888;46.748;8.102;2024-01-11T17:11:27;7.60;;;5.07;;
15573;SDS011;7888;46.748;8.102;2024-01-11T17:13:54;6.77;;;4.90;;
15573;SDS011;7888;46.748;8.102;2024-01-11T17:16:20;6.50;;;4.73;;
15573;SDS011;7888;46.748;8.102;2024-01-11T17:18:47;8.57;;;4.83;;
15573;SDS011;7888;46.748;8.102;2024-01-11T17:21:13;5.87;;;4.80;;
15573;SDS011;7888;46.748;8.102;2024-01-11T17:23:39;6.87;;;4.63;;
15573;SDS011;7888;46.748;8.102;2024-01-11T17:26:05;9.00;;;5.10;;
15573;SDS011;7888;46.748;8.102;2024-01-11T17:28:32;9.90;;;5.17;;
15573;SDS011;7888;46.748;8.102;2024-01-11T17:30:58;5.77;;;4.60;;
15573;SDS011;7888;46.748;8.102;2024-01-11T17:33:24;5.60;;;3.80;;
15573;SDS011;7888;46.748;8.102;2024-01-11T17:35:51;8.43;;;4.90;;
15573;SDS011;7888;46.748;8.102;2024-01-11T17:38:16;6.20;;;4.87;;
15573;SDS011;7888;46.748;8.102;2024-01-11T17:40:42;8.43;;;5.10;;
15573;SDS011;7888;46.748;8.102;2024-01-11T17:43:08;6.03;;;4.47;;
15573;SDS011;7888;46.748;8.102;2024-01-11T17:45:33;7.53;;;4.57;;
15573;SDS011;7888;46.748;8.102;2024-01-11T17:48:00;7.83;;;4.73;;
15573;SDS011;7888;46.748;8.102;2024-01-11T17:50:26;6.33;;;4.53;;
15573;SDS011;7888;46.748;8.102;2024-01-11T17:52:52;6.80;;;4.93;;
15573;SDS011;7888;46.748;8.102;2024-01-11T17:55:18;7.40;;;5.43;;
15573;SDS011;7888;46.748;8.102;2024-01-11T17:57:44;7.37;;;4.57;;
15573;SDS011;7888;46.748;8.102;2024-01-11T18:00:09;8.47;;;5.80;;
15573;SDS011;7888;46.748;8.102;2024-01-11T18:02:37;6.90;;;5.10;;
15573;SDS011;7888;46.748;8.102;2024-01-11T18:05:03;7.97;;;5.30;;
15573;SDS011;7888;46.748;8.102;2024-01-11T18:07:29;7.90;;;4.93;;
15573;SDS011;7888;46.748;8.102;2024-01-11T18:09:55;7.53;;;5.13;;
15573;SDS011;7888;46.748;8.102;2024-01-11T18:12:20;9.30;;;5.50;;
15573;SDS011;7888;46.748;8.102;2024-01-11T18:14:46;7.10;;;5.17;;
15573;SDS011;7888;46.748;8.102;2024-01-11T18:17:13;10.10;;;5.70;;
15573;SDS011;7888;46.748;8.102;2024-01-11T18:19:39;8.40;;;5.20;;
15573;SDS011;7888;46.748;8.102;2024-01-11T18:22:05;8.43;;;4.93;;
15573;SDS011;7888;46.748;8.102;2024-01-11T18:24:33;9.00;;;6.17;;
15573;SDS011;7888;46.748;8.102;2024-01-11T18:27:00;8.13;;;6.00;;
15573;SDS011;7888;46.748;8.102;2024-01-11T18:29:26;8.03;;;5.50;;
15573;SDS011;7888;46.748;8.102;2024-01-11T18:31:51;8.70;;;5.60;;
15573;SDS011;7888;46.748;8.102;2024-01-11T18:34:17;7.70;;;4.83;;
15573;SDS011;7888;46.748;8.102;2024-01-11T18:36:46;8.57;;;5.77;;
15573;SDS011;7888;46.748;8.102;2024-01-11T18:39:12;7.07;;;4.57;;
15573;SDS011;7888;46.748;8.102;2024-01-11T18:41:39;6.47;;;4.90;;
15573;SDS011;7888;46.748;8.102;2024-01-11T18:44:05;8.03;;;5.40;;
15573;SDS011;7888;46.748;8.102;2024-01-11T18:46:31;8.00;;;5.10;;
15573;SDS011;7888;46.748;8.102;2024-01-11T18:49:02;6.90;;;4.70;;
15573;SDS011;7888;46.748;8.102;2024-01-11T18:51:28;6.97;;;4.87;;
15573;SDS011;7888;46.748;8.102;2024-01-11T18:53:53;7.13;;;4.80;;
15573;SDS011;7888;46.748;8.102;2024-01-11T18:56:19;7.17;;;5.40;;
15573;SDS011;7888;46.748;8.102;2024-01-11T18:58:45;6.57;;;5.43;;
15573;SDS011;7888;46.748;8.102;2024-01-11T19:01:12;7.77;;;5.30;;
15573;SDS011;7888;46.748;8.102;2024-01-11T19:03:37;9.80;;;5.83;;
15573;SDS011;7888;46.748;8.102;2024-01-11T19:06:05;7.77;;;5.33;;
15573;SDS011;7888;46.748;8.102;2024-01-11T19:08:32;7.37;;;5.10;;
15573;SDS011;7888;46.748;8.102;2024-01-11T19:10:59;7.77;;;5.63;;
15573;SDS011;7888;46.748;8.102;2024-01-11T19:13:25;8.67;;;5.97;;
15573;SDS011;7888;46.748;8.102;2024-01-11T19:15:50;7.03;;;5.40;;
15573;SDS011;7888;46.748;8.102;2024-01-11T19:18:18;7.90;;;5.10;;
15573;SDS011;7888;46.748;8.102;2024-01-11T19:20:43;8.50;;;5.80;;
15573;SDS011;7888;46.748;8.102;2024-01-11T19:23:09;8.03;;;5.67;;
15573;SDS011;7888;46.748;8.102;2024-01-11T19:25:35;10.37;;;6.87;;
15573;SDS011;7888;46.748;8.102;2024-01-11T19:28:01;8.67;;;6.17;;
15573;SDS011;7888;46.748;8.102;2024-01-11T19:30:27;8.87;;;5.93;;
15573;SDS011;7888;46.748;8.102;2024-01-11T19:32:54;10.00;;;6.40;;
15573;SDS011;7888;46.748;8.102;2024-01-11T19:35:20;9.10;;;6.23;;
15573;SDS011;7888;46.748;8.102;2024-01-11T19:37:46;9.30;;;6.13;;
15573;SDS011;7888;46.748;8.102;2024-01-11T19:40:12;9.20;;;6.67;;
15573;SDS011;7888;46.748;8.102;2024-01-11T19:42:40;9.33;;;6.07;;
15573;SDS011;7888;46.748;8.102;2024-01-11T19:45:06;8.73;;;6.47;;
15573;SDS011;7888;46.748;8.102;2024-01-11T19:47:32;8.07;;;5.37;;
15573;SDS011;7888;46.748;8.102;2024-01-11T19:50:02;8.43;;;5.63;;
15573;SDS011;7888;46.748;8.102;2024-01-11T19:52:30;9.93;;;6.13;;
15573;SDS011;7888;46.748;8.102;2024-01-11T19:54:56;8.80;;;6.90;;
15573;SDS011;7888;46.748;8.102;2024-01-11T19:57:23;9.77;;;6.47;;
15573;SDS011;7888;46.748;8.102;2024-01-11T19:59:49;12.53;;;7.23;;
15573;SDS011;7888;46.748;8.102;2024-01-11T20:02:15;9.10;;;6.33;;
15573;SDS011;7888;46.748;8.102;2024-01-11T20:04:41;10.87;;;7.30;;
15573;SDS011;7888;46.748;8.102;2024-01-11T20:07:06;10.07;;;6.27;;
15573;SDS011;7888;46.748;8.102;2024-01-11T20:09:32;11.37;;;7.60;;
15573;SDS011;7888;46.748;8.102;2024-01-11T20:11:58;11.20;;;7.43;;
15573;SDS011;7888;46.748;8.102;2024-01-11T20:14:24;8.90;;;6.03;;
15573;SDS011;7888;46.748;8.102;2024-01-11T20:16:52;9.53;;;6.47;;
15573;SDS011;7888;46.748;8.102;2024-01-11T20:19:18;11.30;;;6.37;;
15573;SDS011;7888;46.748;8.102;2024-01-11T20:21:45;11.90;;;6.80;;
15573;SDS011;7888;46.748;8.102;2024-01-11T20:24:12;9.97;;;6.63;;
15573;SDS011;7888;46.748;8.102;2024-01-11T20:26:37;10.10;;;6.37;;
15573;SDS011;7888;46.748;8.102;2024-01-11T20:29:03;9.47;;;6.23;;
15573;SDS011;7888;46.748;8.102;2024-01-11T20:31:29;9.87;;;5.63;;
15573;SDS011;7888;46.748;8.102;2024-01-11T20:33:56;9.07;;;5.90;;
15573;SDS011;7888;46.748;8.102;2024-01-11T20:36:26;11.37;;;7.10;;
15573;SDS011;7888;46.748;8.102;2024-01-11T20:38:53;12.93;;;7.70;;
15573;SDS011;7888;46.748;8.102;2024-01-11T20:41:20;10.33;;;7.30;;
15573;SDS011;7888;46.748;8.102;2024-01-11T20:43:46;11.43;;;7.67;;
15573;SDS011;7888;46.748;8.102;2024-01-11T20:46:22;11.70;;;7.63;;
15573;SDS011;7888;46.748;8.102;2024-01-11T20:48:48;11.23;;;7.23;;
15573;SDS011;7888;46.748;8.102;2024-01-11T20:51:15;13.20;;;7.83;;
15573;SDS011;7888;46.748;8.102;2024-01-11T20:53:45;13.23;;;7.40;;
15573;SDS011;7888;46.748;8.102;2024-01-11T20:56:12;12.27;;;7.40;;
15573;SDS011;7888;46.748;8.102;2024-01-11T20:58:44;13.67;;;8.27;;
15573;SDS011;7888;46.748;8.102;2024-01-11T21:01:10;11.63;;;7.37;;
15573;SDS011;7888;46.748;8.102;2024-01-11T21:03:36;14.17;;;7.40;;
15573;SDS011;7888;46.748;8.102;2024-01-11T21:06:02;12.83;;;7.83;;
15573;SDS011;7888;46.748;8.102;2024-01-11T21:08:29;14.20;;;8.27;;
15573;SDS011;7888;46.748;8.102;2024-01-11T21:10:55;12.83;;;7.90;;
15573;SDS011;7888;46.748;8.102;2024-01-11T21:13:21;11.77;;;7.63;;
15573;SDS011;7888;46.748;8.102;2024-01-11T21:15:49;10.17;;;7.30;;
15573;SDS011;7888;46.748;8.102;2024-01-11T21:18:15;11.13;;;7.57;;
15573;SDS011;7888;46.748;8.102;2024-01-11T21:20:41;13.60;;;8.23;;
15573;SDS011;7888;46.748;8.102;2024-01-11T21:23:10;19.47;;;9.40;;
15573;SDS011;7888;46.748;8.102;2024-01-11T21:25:36;15.27;;;9.03;;
15573;SDS011;7888;46.748;8.102;2024-01-11T21:28:03;17.60;;;10.10;;
15573;SDS011;7888;46.748;8.102;2024-01-11T21:30:29;19.27;;;10.30;;
15573;SDS011;7888;46.748;8.102;2024-01-11T21:32:56;17.27;;;10.13;;
15573;SDS011;7888;46.748;8.102;2024-01-11T21:35:22;19.30;;;10.83;;
15573;SDS011;7888;46.748;8.102;2024-01-11T21:37:48;17.00;;;10.80;;
15573;SDS011;7888;46.748;8.102;2024-01-11T21:40:14;18.53;;;9.13;;
15573;SDS011;7888;46.748;8.102;2024-01-11T21:42:46;13.67;;;8.17;;
15573;SDS011;7888;46.748;8.102;2024-01-11T21:45:12;15.40;;;9.07;;
15573;SDS011;7888;46.748;8.102;2024-01-11T21:47:38;14.87;;;9.20;;
15573;SDS011;7888;46.748;8.102;2024-01-11T21:50:04;16.87;;;10.00;;
15573;SDS011;7888;46.748;8.102;2024-01-11T21:52:30;17.13;;;10.13;;
15573;SDS011;7888;46.748;8.102;2024-01-11T21:54:56;12.53;;;8.77;;
15573;SDS011;7888;46.748;8.102;2024-01-11T21:57:22;15.50;;;8.53;;
15573;SDS011;7888;46.748;8.102;2024-01-11T21:59:47;13.50;;;8.43;;
15573;SDS011;7888;46.748;8.102;2024-01-11T22:02:13;10.90;;;6.53;;
15573;SDS011;7888;46.748;8.102;2024-01-11T22:04:39;8.87;;;6.30;;
15573;SDS011;7888;46.748;8.102;2024-01-11T22:07:04;9.40;;;5.30;;
15573;SDS011;7888;46.748;8.102;2024-01-11T22:09:30;8.40;;;5.13;;
15573;SDS011;7888;46.748;8.102;2024-01-11T22:11:56;5.60;;;4.40;;
15573;SDS011;7888;46.748;8.102;2024-01-11T22:14:22;6.27;;;4.57;;
15573;SDS011;7888;46.748;8.102;2024-01-11T22:16:48;7.13;;;5.17;;
15573;SDS011;7888;46.748;8.102;2024-01-11T22:19:14;7.60;;;5.10;;
15573;SDS011;7888;46.748;8.102;2024-01-11T22:21:40;8.37;;;5.70;;
15573;SDS011;7888;46.748;8.102;2024-01-11T22:24:07;11.20;;;6.83;;
15573;SDS011;7888;46.748;8.102;2024-01-11T22:26:33;9.13;;;6.23;;
15573;SDS011;7888;46.748;8.102;2024-01-11T22:28:59;12.17;;;7.30;;
15573;SDS011;7888;46.748;8.102;2024-01-11T22:31:31;10.30;;;6.63;;
15573;SDS011;7888;46.748;8.102;2024-01-11T22:33:59;10.70;;;6.63;;
15573;SDS011;7888;46.748;8.102;2024-01-11T22:36:25;10.77;;;7.07;;
15573;SDS011;7888;46.748;8.102;2024-01-11T22:38:53;12.27;;;7.63;;
15573;SDS011;7888;46.748;8.102;2024-01-11T22:41:19;12.10;;;7.33;;
15573;SDS011;7888;46.748;8.102;2024-01-11T22:43:45;11.00;;;7.40;;
15573;SDS011;7888;46.748;8.102;2024-01-11T22:46:10;11.27;;;6.73;;
15573;SDS011;7888;46.748;8.102;2024-01-11T22:48:36;12.47;;;7.93;;
15573;SDS011;7888;46.748;8.102;2024-01-11T22:51:05;11.83;;;6.77;;
15573;SDS011;7888;46.748;8.102;2024-01-11T22:53:35;10.80;;;7.57;;
15573;SDS011;7888;46.748;8.102;2024-01-11T22:56:01;12.47;;;7.07;;
15573;SDS011;7888;46.748;8.102;2024-01-11T22:58:27;11.37;;;7.17;;
15573;SDS011;7888;46.748;8.102;2024-01-11T23:00:53;8.83;;;6.00;;
15573;SDS011;7888;46.748;8.102;2024-01-11T23:03:20;8.40;;;5.60;;
15573;SDS011;7888;46.748;8.102;2024-01-11T23:05:47;9.10;;;5.97;;
15573;SDS011;7888;46.748;8.102;2024-01-11T23:08:12;7.50;;;5.53;;
15573;SDS011;7888;46.748;8.102;2024-01-11T23:10:38;8.97;;;6.17;;
15573;SDS011;7888;46.748;8.102;2024-01-11T23:13:04;7.80;;;5.27;;
15573;SDS011;7888;46.748;8.102;2024-01-11T23:15:30;9.40;;;5.90;;
15573;SDS011;7888;46.748;8.102;2024-01-11T23:17:57;8.53;;;5.37;;
15573;SDS011;7888;46.748;8.102;2024-01-11T23:20:26;7.57;;;5.33;;
15573;SDS011;7888;46.748;8.102;2024-01-11T23:22:51;5.40;;;4.53;;
15573;SDS011;7888;46.748;8.102;2024-01-11T23:25:17;5.47;;;4.07;;
15573;SDS011;7888;46.748;8.102;2024-01-11T23:27:43;7.50;;;5.47;;
15573;SDS011;7888;46.748;8.102;2024-01-11T23:30:09;8.33;;;5.27;;
15573;SDS011;7888;46.748;8.102;2024-01-11T23:32:36;8.60;;;5.90;;
15573;SDS011;7888;46.748;8.102;2024-01-11T23:35:02;9.23;;;6.07;;
15573;SDS011;7888;46.748;8.102;2024-01-11T23:37:29;9.50;;;6.20;;
15573;SDS011;7888;46.748;8.102;2024-01-11T23:39:54;9.37;;;6.03;;
15573;SDS011;7888;46.748;8.102;2024-01-11T23:42:20;6.90;;;5.00;;
15573;SDS011;7888;46.748;8.102;2024-01-11T23:44:46;6.87;;;5.07;;
15573;SDS011;7888;46.748;8.102;2024-01-11T23:47:12;5.60;;;4.47;;
15573;SDS011;7888;46.748;8.102;2024-01-11T23:49:37;7.20;;;4.70;;
15573;SDS011;7888;46.748;8.102;2024-01-11T23:52:04;6.13;;;4.50;;
15573;SDS011;7888;46.748;8.102;2024-01-11T23:54:30;5.37;;;4.20;;
15573;SDS011;7888;46.748;8.102;2024-01-11T23:56:56;6.00;;;4.10;;